sensor_id;sensor_type;location;lat;lon;timestamp;P1;durP1;ratioP1;P2;durP2;ratioP2
10934;SDS011;5520;45.752;4.874;2022-12-18T00:01:20;25.43;;;15.40;;
10934;SDS011;5520;45.752;4.874;2022-12-18T00:03:50;23.60;;;14.37;;
10934;SDS011;5520;45.752;4.874;2022-12-18T00:06:18;25.83;;;13.77;;
10934;SDS011;5520;45.752;4.874;2022-12-18T00:08:46;28.00;;;14.73;;
10934;SDS011;5520;45.752;4.874;2022-12-18T00:11:15;24.07;;;13.13;;
10934;SDS011;5520;45.752;4.874;2022-12-18T00:13:44;28.67;;;15.83;;
10934;SDS011;5520;45.752;4.874;2022-12-18T00:16:13;23.40;;;14.17;;
10934;SDS011;5520;45.752;4.874;2022-12-18T00:18:41;27.57;;;14.33;;
10934;SDS011;5520;45.752;4.874;2022-12-18T00:21:11;32.67;;;15.67;;
10934;SDS011;5520;45.752;4.874;2022-12-18T00:23:41;27.93;;;15.20;;
10934;SDS011;5520;45.752;4.874;2022-12-18T00:26:11;33.87;;;16.13;;
10934;SDS011;5520;45.752;4.874;2022-12-18T00:28:43;25.20;;;14.77;;
10934;SDS011;5520;45.752;4.874;2022-12-18T00:31:11;27.13;;;14.57;;
10934;SDS011;5520;45.752;4.874;2022-12-18T00:33:40;32.07;;;15.70;;
10934;SDS011;5520;45.752;4.874;2022-12-18T00:36:08;24.47;;;14.53;;
10934;SDS011;5520;45.752;4.874;2022-12-18T00:38:38;28.53;;;14.60;;
10934;SDS011;5520;45.752;4.874;2022-12-18T00:41:06;27.90;;;15.43;;
10934;SDS011;5520;45.752;4.874;2022-12-18T00:43:35;25.97;;;14.53;;
10934;SDS011;5520;45.752;4.874;2022-12-18T00:46:02;31.40;;;15.53;;
10934;SDS011;5520;45.752;4.874;2022-12-18T00:48:31;30.07;;;14.60;;
10934;SDS011;5520;45.752;4.874;2022-12-18T00:50:58;30.63;;;14.90;;
10934;SDS011;5520;45.752;4.874;2022-12-18T00:53:26;25.87;;;13.63;;
10934;SDS011;5520;45.752;4.874;2022-12-18T00:55:56;32.20;;;14.73;;
10934;SDS011;5520;45.752;4.874;2022-12-18T00:58:24;29.67;;;15.13;;
10934;SDS011;5520;45.752;4.874;2022-12-18T01:00:52;28.17;;;14.77;;
10934;SDS011;5520;45.752;4.874;2022-12-18T01:03:20;28.17;;;13.57;;
10934;SDS011;5520;45.752;4.874;2022-12-18T01:05:48;30.80;;;14.77;;
10934;SDS011;5520;45.752;4.874;2022-12-18T01:08:16;30.73;;;14.07;;
10934;SDS011;5520;45.752;4.874;2022-12-18T01:10:44;28.57;;;15.07;;
10934;SDS011;5520;45.752;4.874;2022-12-18T01:13:13;32.20;;;16.03;;
10934;SDS011;5520;45.752;4.874;2022-12-18T01:15:47;30.00;;;16.10;;
10934;SDS011;5520;45.752;4.874;2022-12-18T01:18:15;27.67;;;14.67;;
10934;SDS011;5520;45.752;4.874;2022-12-18T01:20:43;31.00;;;16.80;;
10934;SDS011;5520;45.752;4.874;2022-12-18T01:23:11;31.70;;;16.00;;
10934;SDS011;5520;45.752;4.874;2022-12-18T01:25:39;29.10;;;16.00;;
10934;SDS011;5520;45.752;4.874;2022-12-18T01:28:07;29.30;;;15.43;;
10934;SDS011;5520;45.752;4.874;2022-12-18T01:30:36;35.10;;;15.27;;
10934;SDS011;5520;45.752;4.874;2022-12-18T01:33:04;29.47;;;15.80;;
10934;SDS011;5520;45.752;4.874;2022-12-18T01:35:32;29.43;;;15.93;;
10934;SDS011;5520;45.752;4.874;2022-12-18T01:38:03;31.53;;;16.47;;
10934;SDS011;5520;45.752;4.874;2022-12-18T01:40:31;37.13;;;17.87;;
10934;SDS011;5520;45.752;4.874;2022-12-18T01:42:59;26.00;;;14.03;;
10934;SDS011;5520;45.752;4.874;2022-12-18T01:45:27;35.30;;;17.20;;
10934;SDS011;5520;45.752;4.874;2022-12-18T01:47:59;35.17;;;18.90;;
10934;SDS011;5520;45.752;4.874;2022-12-18T01:50:29;30.90;;;16.17;;
10934;SDS011;5520;45.752;4.874;2022-12-18T01:53:00;38.03;;;17.67;;
10934;SDS011;5520;45.752;4.874;2022-12-18T01:55:29;31.83;;;17.47;;
10934;SDS011;5520;45.752;4.874;2022-12-18T01:57:58;34.87;;;18.30;;
10934;SDS011;5520;45.752;4.874;2022-12-18T02:00:27;31.23;;;16.73;;
10934;SDS011;5520;45.752;4.874;2022-12-18T02:02:55;30.63;;;16.23;;
10934;SDS011;5520;45.752;4.874;2022-12-18T02:05:27;34.80;;;16.70;;
10934;SDS011;5520;45.752;4.874;2022-12-18T02:07:58;35.00;;;16.60;;
10934;SDS011;5520;45.752;4.874;2022-12-18T02:10:33;27.47;;;15.90;;
10934;SDS011;5520;45.752;4.874;2022-12-18T02:13:05;35.60;;;16.63;;
10934;SDS011;5520;45.752;4.874;2022-12-18T02:15:36;31.33;;;16.90;;
10934;SDS011;5520;45.752;4.874;2022-12-18T02:18:07;32.73;;;16.37;;
10934;SDS011;5520;45.752;4.874;2022-12-18T02:20:39;28.57;;;15.73;;
10934;SDS011;5520;45.752;4.874;2022-12-18T02:23:12;28.60;;;16.33;;
10934;SDS011;5520;45.752;4.874;2022-12-18T02:25:55;33.13;;;15.90;;
10934;SDS011;5520;45.752;4.874;2022-12-18T02:28:28;31.67;;;16.50;;
10934;SDS011;5520;45.752;4.874;2022-12-18T02:30:58;36.03;;;17.10;;
10934;SDS011;5520;45.752;4.874;2022-12-18T02:33:27;25.63;;;15.00;;
10934;SDS011;5520;45.752;4.874;2022-12-18T02:35:56;23.43;;;13.97;;
10934;SDS011;5520;45.752;4.874;2022-12-18T02:38:25;27.60;;;14.70;;
10934;SDS011;5520;45.752;4.874;2022-12-18T02:40:55;32.63;;;15.47;;
10934;SDS011;5520;45.752;4.874;2022-12-18T02:43:23;23.73;;;13.27;;
10934;SDS011;5520;45.752;4.874;2022-12-18T02:45:52;28.20;;;14.30;;
10934;SDS011;5520;45.752;4.874;2022-12-18T02:48:22;23.87;;;14.13;;
10934;SDS011;5520;45.752;4.874;2022-12-18T02:50:52;28.53;;;14.17;;
10934;SDS011;5520;45.752;4.874;2022-12-18T02:53:24;30.07;;;13.63;;
10934;SDS011;5520;45.752;4.874;2022-12-18T02:55:58;27.10;;;14.10;;
10934;SDS011;5520;45.752;4.874;2022-12-18T02:58:27;27.17;;;14.73;;
10934;SDS011;5520;45.752;4.874;2022-12-18T03:00:58;25.57;;;14.57;;
10934;SDS011;5520;45.752;4.874;2022-12-18T03:03:28;25.93;;;13.50;;
10934;SDS011;5520;45.752;4.874;2022-12-18T03:05:58;24.50;;;12.77;;
10934;SDS011;5520;45.752;4.874;2022-12-18T03:08:28;25.87;;;14.17;;
10934;SDS011;5520;45.752;4.874;2022-12-18T03:10:59;24.90;;;12.97;;
10934;SDS011;5520;45.752;4.874;2022-12-18T03:13:30;26.30;;;14.63;;
10934;SDS011;5520;45.752;4.874;2022-12-18T03:15:59;25.67;;;13.50;;
10934;SDS011;5520;45.752;4.874;2022-12-18T03:18:29;26.10;;;13.73;;
10934;SDS011;5520;45.752;4.874;2022-12-18T03:20:58;22.83;;;13.40;;
10934;SDS011;5520;45.752;4.874;2022-12-18T03:23:27;24.50;;;13.43;;
10934;SDS011;5520;45.752;4.874;2022-12-18T03:25:57;27.73;;;14.50;;
10934;SDS011;5520;45.752;4.874;2022-12-18T03:28:34;22.20;;;13.00;;
10934;SDS011;5520;45.752;4.874;2022-12-18T03:31:05;24.20;;;13.33;;
10934;SDS011;5520;45.752;4.874;2022-12-18T03:33:37;21.27;;;13.77;;
10934;SDS011;5520;45.752;4.874;2022-12-18T03:36:07;23.47;;;12.90;;
10934;SDS011;5520;45.752;4.874;2022-12-18T03:38:35;23.67;;;12.97;;
10934;SDS011;5520;45.752;4.874;2022-12-18T03:41:04;22.77;;;14.00;;
10934;SDS011;5520;45.752;4.874;2022-12-18T03:43:38;25.87;;;12.60;;
10934;SDS011;5520;45.752;4.874;2022-12-18T03:46:11;23.40;;;13.63;;
10934;SDS011;5520;45.752;4.874;2022-12-18T03:48:43;26.73;;;13.33;;
10934;SDS011;5520;45.752;4.874;2022-12-18T03:51:13;28.10;;;14.43;;
10934;SDS011;5520;45.752;4.874;2022-12-18T03:53:44;28.03;;;14.03;;
10934;SDS011;5520;45.752;4.874;2022-12-18T03:56:13;22.43;;;13.93;;
10934;SDS011;5520;45.752;4.874;2022-12-18T03:58:44;25.23;;;13.90;;
10934;SDS011;5520;45.752;4.874;2022-12-18T04:01:14;25.67;;;13.03;;
10934;SDS011;5520;45.752;4.874;2022-12-18T04:03:44;22.37;;;12.53;;
10934;SDS011;5520;45.752;4.874;2022-12-18T04:06:14;20.07;;;11.63;;
10934;SDS011;5520;45.752;4.874;2022-12-18T04:08:43;24.53;;;13.70;;
10934;SDS011;5520;45.752;4.874;2022-12-18T04:11:11;27.17;;;14.33;;
10934;SDS011;5520;45.752;4.874;2022-12-18T04:13:39;25.00;;;13.93;;
10934;SDS011;5520;45.752;4.874;2022-12-18T04:16:11;18.50;;;11.80;;
10934;SDS011;5520;45.752;4.874;2022-12-18T04:18:39;22.90;;;13.03;;
10934;SDS011;5520;45.752;4.874;2022-12-18T04:21:07;23.70;;;12.73;;
10934;SDS011;5520;45.752;4.874;2022-12-18T04:23:35;23.23;;;12.73;;
10934;SDS011;5520;45.752;4.874;2022-12-18T04:26:04;23.87;;;13.63;;
10934;SDS011;5520;45.752;4.874;2022-12-18T04:28:32;25.80;;;12.77;;
10934;SDS011;5520;45.752;4.874;2022-12-18T04:31:00;21.37;;;11.23;;
10934;SDS011;5520;45.752;4.874;2022-12-18T04:33:29;23.43;;;12.33;;
10934;SDS011;5520;45.752;4.874;2022-12-18T04:35:57;23.30;;;12.23;;
10934;SDS011;5520;45.752;4.874;2022-12-18T04:38:25;27.53;;;14.20;;
10934;SDS011;5520;45.752;4.874;2022-12-18T04:40:53;20.80;;;12.17;;
10934;SDS011;5520;45.752;4.874;2022-12-18T04:43:21;21.33;;;12.40;;
10934;SDS011;5520;45.752;4.874;2022-12-18T04:45:49;18.87;;;11.47;;
10934;SDS011;5520;45.752;4.874;2022-12-18T04:48:17;22.60;;;12.17;;
10934;SDS011;5520;45.752;4.874;2022-12-18T04:50:48;20.97;;;11.63;;
10934;SDS011;5520;45.752;4.874;2022-12-18T04:53:16;25.47;;;13.00;;
10934;SDS011;5520;45.752;4.874;2022-12-18T04:55:44;23.63;;;13.97;;
10934;SDS011;5520;45.752;4.874;2022-12-18T04:58:11;21.87;;;13.13;;
10934;SDS011;5520;45.752;4.874;2022-12-18T05:00:39;24.67;;;13.07;;
10934;SDS011;5520;45.752;4.874;2022-12-18T05:03:07;22.30;;;13.63;;
10934;SDS011;5520;45.752;4.874;2022-12-18T05:05:35;22.87;;;12.27;;
10934;SDS011;5520;45.752;4.874;2022-12-18T05:08:05;20.63;;;12.30;;
10934;SDS011;5520;45.752;4.874;2022-12-18T05:10:33;22.03;;;12.50;;
10934;SDS011;5520;45.752;4.874;2022-12-18T05:13:03;23.50;;;13.33;;
10934;SDS011;5520;45.752;4.874;2022-12-18T05:15:32;23.00;;;12.57;;
10934;SDS011;5520;45.752;4.874;2022-12-18T05:18:00;16.97;;;11.47;;
10934;SDS011;5520;45.752;4.874;2022-12-18T05:20:28;20.77;;;12.83;;
10934;SDS011;5520;45.752;4.874;2022-12-18T05:22:56;23.60;;;12.80;;
10934;SDS011;5520;45.752;4.874;2022-12-18T05:25:26;25.53;;;13.23;;
10934;SDS011;5520;45.752;4.874;2022-12-18T05:27:54;22.17;;;13.43;;
10934;SDS011;5520;45.752;4.874;2022-12-18T05:30:23;23.03;;;12.93;;
10934;SDS011;5520;45.752;4.874;2022-12-18T05:32:51;25.83;;;14.50;;
10934;SDS011;5520;45.752;4.874;2022-12-18T05:35:20;25.97;;;14.20;;
10934;SDS011;5520;45.752;4.874;2022-12-18T05:37:48;25.17;;;13.87;;
10934;SDS011;5520;45.752;4.874;2022-12-18T05:40:16;24.60;;;13.07;;
10934;SDS011;5520;45.752;4.874;2022-12-18T05:42:45;23.20;;;13.10;;
10934;SDS011;5520;45.752;4.874;2022-12-18T05:45:13;29.17;;;15.17;;
10934;SDS011;5520;45.752;4.874;2022-12-18T05:47:41;23.37;;;14.50;;
10934;SDS011;5520;45.752;4.874;2022-12-18T05:50:09;27.67;;;14.90;;
10934;SDS011;5520;45.752;4.874;2022-12-18T05:52:37;26.10;;;15.57;;
10934;SDS011;5520;45.752;4.874;2022-12-18T05:55:05;26.00;;;13.33;;
10934;SDS011;5520;45.752;4.874;2022-12-18T05:57:33;22.67;;;13.40;;
10934;SDS011;5520;45.752;4.874;2022-12-18T06:00:03;26.43;;;15.07;;
10934;SDS011;5520;45.752;4.874;2022-12-18T06:02:31;26.60;;;14.47;;
10934;SDS011;5520;45.752;4.874;2022-12-18T06:04:59;25.07;;;14.60;;
10934;SDS011;5520;45.752;4.874;2022-12-18T06:07:27;22.37;;;11.83;;
10934;SDS011;5520;45.752;4.874;2022-12-18T06:09:55;21.77;;;13.17;;
10934;SDS011;5520;45.752;4.874;2022-12-18T06:12:23;23.03;;;12.73;;
10934;SDS011;5520;45.752;4.874;2022-12-18T06:14:51;25.13;;;15.10;;
10934;SDS011;5520;45.752;4.874;2022-12-18T06:17:21;22.60;;;13.10;;
10934;SDS011;5520;45.752;4.874;2022-12-18T06:19:49;21.80;;;13.53;;
10934;SDS011;5520;45.752;4.874;2022-12-18T06:22:17;24.80;;;13.80;;
10934;SDS011;5520;45.752;4.874;2022-12-18T06:24:45;24.67;;;14.33;;
10934;SDS011;5520;45.752;4.874;2022-12-18T06:27:13;25.97;;;14.47;;
10934;SDS011;5520;45.752;4.874;2022-12-18T06:29:41;22.80;;;12.97;;
10934;SDS011;5520;45.752;4.874;2022-12-18T06:32:09;21.57;;;12.83;;
10934;SDS011;5520;45.752;4.874;2022-12-18T06:34:38;27.27;;;14.63;;
10934;SDS011;5520;45.752;4.874;2022-12-18T06:37:06;23.93;;;12.97;;
10934;SDS011;5520;45.752;4.874;2022-12-18T06:39:34;23.07;;;14.33;;
10934;SDS011;5520;45.752;4.874;2022-12-18T06:42:02;29.50;;;12.33;;
10934;SDS011;5520;45.752;4.874;2022-12-18T06:44:30;24.13;;;13.93;;
10934;SDS011;5520;45.752;4.874;2022-12-18T06:46:58;26.87;;;13.17;;
10934;SDS011;5520;45.752;4.874;2022-12-18T06:49:26;27.77;;;13.87;;
10934;SDS011;5520;45.752;4.874;2022-12-18T06:51:57;27.07;;;14.47;;
10934;SDS011;5520;45.752;4.874;2022-12-18T06:54:25;25.87;;;14.20;;
10934;SDS011;5520;45.752;4.874;2022-12-18T06:56:56;24.73;;;14.03;;
10934;SDS011;5520;45.752;4.874;2022-12-18T06:59:24;27.30;;;14.73;;
10934;SDS011;5520;45.752;4.874;2022-12-18T07:01:53;26.10;;;13.13;;
10934;SDS011;5520;45.752;4.874;2022-12-18T07:04:21;26.60;;;14.47;;
10934;SDS011;5520;45.752;4.874;2022-12-18T07:06:50;22.53;;;13.50;;
10934;SDS011;5520;45.752;4.874;2022-12-18T07:09:19;25.93;;;14.30;;
10934;SDS011;5520;45.752;4.874;2022-12-18T07:11:47;26.80;;;14.23;;
10934;SDS011;5520;45.752;4.874;2022-12-18T07:14:15;25.13;;;12.47;;
10934;SDS011;5520;45.752;4.874;2022-12-18T07:16:43;26.57;;;14.33;;
10934;SDS011;5520;45.752;4.874;2022-12-18T07:19:11;28.03;;;14.50;;
10934;SDS011;5520;45.752;4.874;2022-12-18T07:21:39;22.07;;;12.40;;
10934;SDS011;5520;45.752;4.874;2022-12-18T07:24:07;24.67;;;13.93;;
10934;SDS011;5520;45.752;4.874;2022-12-18T07:26:37;27.93;;;13.83;;
10934;SDS011;5520;45.752;4.874;2022-12-18T07:29:05;26.20;;;13.43;;
10934;SDS011;5520;45.752;4.874;2022-12-18T07:31:33;20.77;;;12.30;;
10934;SDS011;5520;45.752;4.874;2022-12-18T07:34:01;24.40;;;14.80;;
10934;SDS011;5520;45.752;4.874;2022-12-18T07:36:29;30.17;;;15.67;;
10934;SDS011;5520;45.752;4.874;2022-12-18T07:38:57;24.77;;;13.50;;
10934;SDS011;5520;45.752;4.874;2022-12-18T07:41:25;27.50;;;15.20;;
10934;SDS011;5520;45.752;4.874;2022-12-18T07:43:54;25.77;;;14.43;;
10934;SDS011;5520;45.752;4.874;2022-12-18T07:46:22;25.97;;;13.83;;
10934;SDS011;5520;45.752;4.874;2022-12-18T07:48:50;24.10;;;13.43;;
10934;SDS011;5520;45.752;4.874;2022-12-18T07:51:18;24.87;;;13.73;;
10934;SDS011;5520;45.752;4.874;2022-12-18T07:53:49;21.73;;;13.47;;
10934;SDS011;5520;45.752;4.874;2022-12-18T07:56:18;24.73;;;14.30;;
10934;SDS011;5520;45.752;4.874;2022-12-18T07:58:57;28.17;;;15.33;;
10934;SDS011;5520;45.752;4.874;2022-12-18T08:01:26;24.53;;;13.13;;
10934;SDS011;5520;45.752;4.874;2022-12-18T08:03:54;31.97;;;14.87;;
10934;SDS011;5520;45.752;4.874;2022-12-18T08:06:22;24.47;;;13.53;;
10934;SDS011;5520;45.752;4.874;2022-12-18T08:08:51;23.03;;;12.00;;
10934;SDS011;5520;45.752;4.874;2022-12-18T08:11:19;25.87;;;14.07;;
10934;SDS011;5520;45.752;4.874;2022-12-18T08:13:47;24.77;;;13.57;;
10934;SDS011;5520;45.752;4.874;2022-12-18T08:16:16;26.63;;;14.30;;
10934;SDS011;5520;45.752;4.874;2022-12-18T08:18:46;30.07;;;14.17;;
10934;SDS011;5520;45.752;4.874;2022-12-18T08:21:16;26.53;;;15.07;;
10934;SDS011;5520;45.752;4.874;2022-12-18T08:23:46;28.97;;;14.07;;
10934;SDS011;5520;45.752;4.874;2022-12-18T08:26:16;24.93;;;14.10;;
10934;SDS011;5520;45.752;4.874;2022-12-18T08:28:46;27.33;;;14.53;;
10934;SDS011;5520;45.752;4.874;2022-12-18T08:31:15;24.10;;;15.27;;
10934;SDS011;5520;45.752;4.874;2022-12-18T08:33:44;25.13;;;14.03;;
10934;SDS011;5520;45.752;4.874;2022-12-18T08:36:12;28.17;;;14.90;;
10934;SDS011;5520;45.752;4.874;2022-12-18T08:38:40;26.43;;;14.43;;
10934;SDS011;5520;45.752;4.874;2022-12-18T08:41:09;29.77;;;14.47;;
10934;SDS011;5520;45.752;4.874;2022-12-18T08:43:37;27.87;;;14.03;;
10934;SDS011;5520;45.752;4.874;2022-12-18T08:46:23;27.97;;;14.53;;
10934;SDS011;5520;45.752;4.874;2022-12-18T08:48:54;27.13;;;15.03;;
10934;SDS011;5520;45.752;4.874;2022-12-18T08:51:22;27.40;;;14.83;;
10934;SDS011;5520;45.752;4.874;2022-12-18T08:53:50;28.97;;;14.47;;
10934;SDS011;5520;45.752;4.874;2022-12-18T08:56:18;24.50;;;14.20;;
10934;SDS011;5520;45.752;4.874;2022-12-18T08:58:46;29.90;;;15.80;;
10934;SDS011;5520;45.752;4.874;2022-12-18T09:01:14;30.73;;;15.50;;
10934;SDS011;5520;45.752;4.874;2022-12-18T09:03:42;28.53;;;16.00;;
10934;SDS011;5520;45.752;4.874;2022-12-18T09:06:20;27.20;;;13.43;;
10934;SDS011;5520;45.752;4.874;2022-12-18T09:08:48;29.10;;;15.07;;
10934;SDS011;5520;45.752;4.874;2022-12-18T09:11:18;26.10;;;13.77;;
10934;SDS011;5520;45.752;4.874;2022-12-18T09:13:46;29.40;;;14.37;;
10934;SDS011;5520;45.752;4.874;2022-12-18T09:16:15;25.57;;;14.83;;
10934;SDS011;5520;45.752;4.874;2022-12-18T09:18:43;25.93;;;15.00;;
10934;SDS011;5520;45.752;4.874;2022-12-18T09:21:12;27.00;;;14.67;;
10934;SDS011;5520;45.752;4.874;2022-12-18T09:23:41;31.80;;;14.83;;
10934;SDS011;5520;45.752;4.874;2022-12-18T09:26:12;24.70;;;14.70;;
10934;SDS011;5520;45.752;4.874;2022-12-18T09:28:40;28.20;;;14.40;;
10934;SDS011;5520;45.752;4.874;2022-12-18T09:31:10;23.57;;;14.30;;
10934;SDS011;5520;45.752;4.874;2022-12-18T09:33:41;30.80;;;14.77;;
10934;SDS011;5520;45.752;4.874;2022-12-18T09:36:10;29.80;;;15.00;;
10934;SDS011;5520;45.752;4.874;2022-12-18T09:38:39;30.10;;;14.83;;
10934;SDS011;5520;45.752;4.874;2022-12-18T09:41:15;27.13;;;15.43;;
10934;SDS011;5520;45.752;4.874;2022-12-18T09:43:45;28.77;;;14.70;;
10934;SDS011;5520;45.752;4.874;2022-12-18T09:46:15;26.80;;;13.67;;
10934;SDS011;5520;45.752;4.874;2022-12-18T09:48:45;27.27;;;14.07;;
10934;SDS011;5520;45.752;4.874;2022-12-18T09:51:15;29.13;;;14.67;;
10934;SDS011;5520;45.752;4.874;2022-12-18T09:53:47;28.87;;;17.00;;
10934;SDS011;5520;45.752;4.874;2022-12-18T09:56:19;29.03;;;13.83;;
10934;SDS011;5520;45.752;4.874;2022-12-18T09:58:50;29.23;;;15.87;;
10934;SDS011;5520;45.752;4.874;2022-12-18T10:01:21;22.10;;;14.40;;
10934;SDS011;5520;45.752;4.874;2022-12-18T10:03:50;24.37;;;13.93;;
10934;SDS011;5520;45.752;4.874;2022-12-18T10:06:20;28.07;;;16.63;;
10934;SDS011;5520;45.752;4.874;2022-12-18T10:08:51;28.77;;;14.93;;
10934;SDS011;5520;45.752;4.874;2022-12-18T10:11:28;26.03;;;14.07;;
10934;SDS011;5520;45.752;4.874;2022-12-18T10:14:01;26.97;;;14.23;;
10934;SDS011;5520;45.752;4.874;2022-12-18T10:16:34;29.97;;;15.37;;
10934;SDS011;5520;45.752;4.874;2022-12-18T10:19:13;26.00;;;14.37;;
10934;SDS011;5520;45.752;4.874;2022-12-18T10:21:50;25.50;;;13.87;;
10934;SDS011;5520;45.752;4.874;2022-12-18T10:24:20;25.57;;;13.60;;
10934;SDS011;5520;45.752;4.874;2022-12-18T10:26:53;25.57;;;14.53;;
10934;SDS011;5520;45.752;4.874;2022-12-18T10:29:24;24.63;;;13.83;;
10934;SDS011;5520;45.752;4.874;2022-12-18T10:31:52;25.87;;;14.13;;
10934;SDS011;5520;45.752;4.874;2022-12-18T10:34:20;26.53;;;14.07;;
10934;SDS011;5520;45.752;4.874;2022-12-18T10:36:48;24.37;;;13.73;;
10934;SDS011;5520;45.752;4.874;2022-12-18T10:39:17;27.27;;;14.10;;
10934;SDS011;5520;45.752;4.874;2022-12-18T10:41:45;25.30;;;13.67;;
10934;SDS011;5520;45.752;4.874;2022-12-18T10:44:17;28.60;;;15.43;;
10934;SDS011;5520;45.752;4.874;2022-12-18T10:46:45;22.87;;;13.10;;
10934;SDS011;5520;45.752;4.874;2022-12-18T10:49:22;29.73;;;15.70;;
10934;SDS011;5520;45.752;4.874;2022-12-18T10:51:50;23.87;;;14.43;;
10934;SDS011;5520;45.752;4.874;2022-12-18T10:54:21;25.47;;;14.33;;
10934;SDS011;5520;45.752;4.874;2022-12-18T10:56:49;29.50;;;15.17;;
10934;SDS011;5520;45.752;4.874;2022-12-18T10:59:19;23.77;;;13.43;;
10934;SDS011;5520;45.752;4.874;2022-12-18T11:01:51;28.40;;;14.67;;
10934;SDS011;5520;45.752;4.874;2022-12-18T11:04:21;25.13;;;12.97;;
10934;SDS011;5520;45.752;4.874;2022-12-18T11:06:54;27.43;;;15.07;;
10934;SDS011;5520;45.752;4.874;2022-12-18T11:09:22;26.93;;;14.77;;
10934;SDS011;5520;45.752;4.874;2022-12-18T11:11:51;29.70;;;15.43;;
10934;SDS011;5520;45.752;4.874;2022-12-18T11:14:22;25.07;;;13.67;;
10934;SDS011;5520;45.752;4.874;2022-12-18T11:16:51;29.90;;;15.07;;
10934;SDS011;5520;45.752;4.874;2022-12-18T11:19:39;26.37;;;14.20;;
10934;SDS011;5520;45.752;4.874;2022-12-18T11:22:17;27.57;;;13.60;;
10934;SDS011;5520;45.752;4.874;2022-12-18T11:24:51;23.13;;;13.90;;
10934;SDS011;5520;45.752;4.874;2022-12-18T11:27:40;20.70;;;13.90;;
10934;SDS011;5520;45.752;4.874;2022-12-18T11:30:13;26.13;;;13.73;;
10934;SDS011;5520;45.752;4.874;2022-12-18T11:32:48;23.37;;;14.10;;
10934;SDS011;5520;45.752;4.874;2022-12-18T11:35:18;27.73;;;15.27;;
10934;SDS011;5520;45.752;4.874;2022-12-18T11:37:47;22.97;;;12.90;;
10934;SDS011;5520;45.752;4.874;2022-12-18T11:40:17;23.67;;;13.80;;
10934;SDS011;5520;45.752;4.874;2022-12-18T11:42:47;27.17;;;13.17;;
10934;SDS011;5520;45.752;4.874;2022-12-18T11:45:25;25.67;;;13.83;;
10934;SDS011;5520;45.752;4.874;2022-12-18T11:47:56;26.23;;;13.20;;
10934;SDS011;5520;45.752;4.874;2022-12-18T11:50:26;22.03;;;12.77;;
10934;SDS011;5520;45.752;4.874;2022-12-18T11:52:56;25.40;;;13.07;;
10934;SDS011;5520;45.752;4.874;2022-12-18T11:55:35;21.63;;;11.97;;
10934;SDS011;5520;45.752;4.874;2022-12-18T11:58:07;27.27;;;14.23;;
10934;SDS011;5520;45.752;4.874;2022-12-18T12:00:39;26.63;;;14.20;;
10934;SDS011;5520;45.752;4.874;2022-12-18T12:03:20;27.60;;;13.80;;
10934;SDS011;5520;45.752;4.874;2022-12-18T12:05:54;22.90;;;12.70;;
10934;SDS011;5520;45.752;4.874;2022-12-18T12:08:28;24.47;;;13.73;;
10934;SDS011;5520;45.752;4.874;2022-12-18T12:11:01;25.73;;;13.17;;
10934;SDS011;5520;45.752;4.874;2022-12-18T12:13:36;22.17;;;13.13;;
10934;SDS011;5520;45.752;4.874;2022-12-18T12:16:12;24.47;;;13.30;;
10934;SDS011;5520;45.752;4.874;2022-12-18T12:18:47;21.70;;;12.90;;
10934;SDS011;5520;45.752;4.874;2022-12-18T12:21:20;29.00;;;14.07;;
10934;SDS011;5520;45.752;4.874;2022-12-18T12:23:52;23.17;;;13.93;;
10934;SDS011;5520;45.752;4.874;2022-12-18T12:26:25;23.87;;;14.17;;
10934;SDS011;5520;45.752;4.874;2022-12-18T12:31:45;20.67;;;12.67;;
10934;SDS011;5520;45.752;4.874;2022-12-18T12:34:16;21.50;;;12.13;;
10934;SDS011;5520;45.752;4.874;2022-12-18T12:36:50;21.83;;;13.20;;
10934;SDS011;5520;45.752;4.874;2022-12-18T12:39:20;21.70;;;13.90;;
10934;SDS011;5520;45.752;4.874;2022-12-18T12:41:50;24.33;;;12.27;;
10934;SDS011;5520;45.752;4.874;2022-12-18T12:44:38;22.27;;;12.77;;
10934;SDS011;5520;45.752;4.874;2022-12-18T12:47:11;22.50;;;13.03;;
10934;SDS011;5520;45.752;4.874;2022-12-18T12:49:45;22.07;;;13.53;;
10934;SDS011;5520;45.752;4.874;2022-12-18T12:52:18;20.90;;;12.90;;
10934;SDS011;5520;45.752;4.874;2022-12-18T12:54:48;53.93;;;30.27;;
10934;SDS011;5520;45.752;4.874;2022-12-18T12:57:18;23.63;;;13.13;;
10934;SDS011;5520;45.752;4.874;2022-12-18T12:59:52;22.07;;;11.93;;
10934;SDS011;5520;45.752;4.874;2022-12-18T13:02:28;25.60;;;14.53;;
10934;SDS011;5520;45.752;4.874;2022-12-18T13:04:58;24.43;;;14.03;;
10934;SDS011;5520;45.752;4.874;2022-12-18T13:07:31;28.90;;;16.87;;
10934;SDS011;5520;45.752;4.874;2022-12-18T13:10:14;23.97;;;14.03;;
10934;SDS011;5520;45.752;4.874;2022-12-18T13:12:55;21.67;;;12.73;;
10934;SDS011;5520;45.752;4.874;2022-12-18T13:15:24;22.53;;;13.00;;
10934;SDS011;5520;45.752;4.874;2022-12-18T13:18:04;19.73;;;10.90;;
10934;SDS011;5520;45.752;4.874;2022-12-18T13:20:32;21.83;;;11.83;;
10934;SDS011;5520;45.752;4.874;2022-12-18T13:23:01;21.97;;;12.77;;
10934;SDS011;5520;45.752;4.874;2022-12-18T13:25:47;23.50;;;13.63;;
10934;SDS011;5520;45.752;4.874;2022-12-18T13:28:15;36.93;;;20.53;;
10934;SDS011;5520;45.752;4.874;2022-12-18T13:30:45;37.00;;;22.27;;
10934;SDS011;5520;45.752;4.874;2022-12-18T13:36:31;22.93;;;12.60;;
10934;SDS011;5520;45.752;4.874;2022-12-18T13:39:09;23.90;;;12.90;;
10934;SDS011;5520;45.752;4.874;2022-12-18T13:41:38;15.23;;;9.97;;
10934;SDS011;5520;45.752;4.874;2022-12-18T13:44:24;20.40;;;11.57;;
10934;SDS011;5520;45.752;4.874;2022-12-18T13:46:52;20.27;;;12.50;;
10934;SDS011;5520;45.752;4.874;2022-12-18T13:49:22;18.57;;;11.80;;
10934;SDS011;5520;45.752;4.874;2022-12-18T13:51:52;22.27;;;12.33;;
10934;SDS011;5520;45.752;4.874;2022-12-18T13:54:22;20.53;;;11.23;;
10934;SDS011;5520;45.752;4.874;2022-12-18T13:56:52;23.27;;;13.10;;
10934;SDS011;5520;45.752;4.874;2022-12-18T13:59:20;20.77;;;12.77;;
10934;SDS011;5520;45.752;4.874;2022-12-18T14:01:51;22.63;;;12.63;;
10934;SDS011;5520;45.752;4.874;2022-12-18T14:04:25;23.57;;;12.60;;
10934;SDS011;5520;45.752;4.874;2022-12-18T14:07:03;21.03;;;13.10;;
10934;SDS011;5520;45.752;4.874;2022-12-18T14:09:34;25.27;;;13.50;;
10934;SDS011;5520;45.752;4.874;2022-12-18T14:12:05;21.13;;;13.20;;
10934;SDS011;5520;45.752;4.874;2022-12-18T14:14:51;24.80;;;13.93;;
10934;SDS011;5520;45.752;4.874;2022-12-18T14:17:21;27.23;;;13.90;;
10934;SDS011;5520;45.752;4.874;2022-12-18T14:19:50;23.90;;;12.90;;
10934;SDS011;5520;45.752;4.874;2022-12-18T14:22:20;21.23;;;12.33;;
10934;SDS011;5520;45.752;4.874;2022-12-18T14:25:05;18.77;;;12.40;;
10934;SDS011;5520;45.752;4.874;2022-12-18T14:27:42;22.10;;;12.90;;
10934;SDS011;5520;45.752;4.874;2022-12-18T14:30:25;21.30;;;13.17;;
10934;SDS011;5520;45.752;4.874;2022-12-18T14:33:00;19.20;;;12.90;;
10934;SDS011;5520;45.752;4.874;2022-12-18T14:35:29;27.57;;;15.47;;
10934;SDS011;5520;45.752;4.874;2022-12-18T14:38:10;30.67;;;15.47;;
10934;SDS011;5520;45.752;4.874;2022-12-18T14:40:38;20.83;;;11.43;;
10934;SDS011;5520;45.752;4.874;2022-12-18T14:43:08;13.33;;;7.10;;
10934;SDS011;5520;45.752;4.874;2022-12-18T14:45:38;15.67;;;10.63;;
10934;SDS011;5520;45.752;4.874;2022-12-18T14:48:11;5.60;;;4.97;;
10934;SDS011;5520;45.752;4.874;2022-12-18T14:50:55;5.57;;;3.30;;
10934;SDS011;5520;45.752;4.874;2022-12-18T14:53:28;4.53;;;2.50;;
10934;SDS011;5520;45.752;4.874;2022-12-18T14:55:59;3.80;;;3.03;;
10934;SDS011;5520;45.752;4.874;2022-12-18T14:58:27;4.63;;;2.50;;
10934;SDS011;5520;45.752;4.874;2022-12-18T15:00:55;3.40;;;2.40;;